Tiempo atmosférico en la estación meteorológica de Calvià, Son Vic Nou, Illes Balears (35 m.)



Fecha
DESCASC
Temp. máxima en grados centígrados (hora)
DESCASC
Temp. mínima en grados centígrados (hora)
DESCASC
Temp. media en grados centígrados
DESCASC
Racha de viento máxima en m/sg (hora)
DESCASC
Velocidad máxima media en intervalos de 10 minutos(hora)
DESCASC
Precipitaciones diarias en mm
DESCASC
Precipitaciones de 00:00 a 06:00 en mm
DESCASC
Precipitaciones de 06:00 a 12:00 en mm
DESCASC
Precipitaciones de 12:00 a 18:00 en mm
DESCASC
Precipitaciones de 18:00 a 24:00 en mm
DESCASC

Gráficas

Temp. máximas Temp. mínimas Temp. medias Precipitaciones Rachas de viento máximas Velocidades máximas media en intervalos de 10 minutos

Datos horarios

Fecha y hora oficial Temperatura (ºC) Velocidad del viento (km/h) Dirección del viento Racha (km/h) Dirección de racha Precipitación (mm) Presión (hPa) Tendencia (hPa) Humedad (%)
2019-05-25 23:00:00 16.2 0 Calma 10 Norte 0 -- -- 83
2019-05-25 22:00:00 16.7 5 Norte 9 Norte 0 -- -- 81
2019-05-25 21:00:00 17 6 Norte 22 Norte 0 -- -- 79
2019-05-25 20:00:00 17.7 11 Norte 19 Norte 0 -- -- 77
2019-05-25 19:00:00 19 5 Norte 12 Noroeste 0 -- -- 78
2019-05-25 18:00:00 18.8 3 Norte 7 Este 0 -- -- 83
2019-05-25 17:00:00 17.6 2 Nordeste 18 Nordeste 0 -- -- 88
2019-05-25 16:00:00 16.5 7 Nordeste 24 Nordeste 0 -- -- 88
2019-05-25 15:00:00 19 7 Norte 19 Norte 0 -- -- 79
2019-05-25 14:00:00 18.1 9 Nordeste 22 Nordeste 0 -- -- 85
2019-05-25 13:00:00 19.4 4 Norte 15 Noroeste 0 -- -- 87
2019-05-25 12:00:00 15.9 11 Norte 23 Nordeste 0 -- -- 85
2019-05-25 11:00:00 19 9 Este 17 Este 0 -- -- 78
2019-05-25 10:00:00 18.8 4 Sur 9 Sudeste 0 -- -- 83
2019-05-25 09:00:00 17.3 2 Sudeste 8 Este 0 -- -- 92
2019-05-25 08:00:00 15.7 0 Calma 6 Noroeste 0 -- -- 96
2019-05-25 07:00:00 13.8 4 Norte 9 Este 0 -- -- 96
2019-05-25 06:00:00 13.6 3 Norte 9 Este 0 -- -- 96
2019-05-25 05:00:00 13 0 Calma 5 Norte 0 -- -- 96
2019-05-25 04:00:00 13.3 3 Nordeste 6 Este 0 -- -- 95
2019-05-25 03:00:00 13.2 0 Calma 6 Este 0 -- -- 95
2019-05-25 02:00:00 12.9 3 Nordeste 7 Nordeste 0 -- -- 95
2019-05-25 01:00:00 12.5 2 Nordeste 7 Este 0 -- -- 94
2019-05-25 00:00:00 12.7 0 Calma 7 Norte 0 -- -- 93
2019-05-24 23:00:00 13.7 4 Norte 10 Norte 0 -- -- 92
2019-05-24 22:00:00 14.5 7 Norte 11 Norte 0 -- -- 92
2019-05-24 21:00:00 15 3 Nordeste 6 Nordeste 0 -- -- 91
2019-05-24 20:00:00 15.4 2 Nordeste 4 Norte 0 -- -- 90
2019-05-24 19:00:00 15.5 2 Sudeste 9 Norte 0.2 -- -- 89
2019-05-24 18:00:00 15.8 4 Nordeste 6 Nordeste 0.4 -- -- 89
2019-05-24 17:00:00 16 0 Calma 6 Norte 0.8 -- -- 88
2019-05-24 16:00:00 15.5 5 Norte 15 Norte 0.4 -- -- 88
2019-05-24 15:00:00 15.3 5 Norte 16 Norte 1.2 -- -- 87
2019-05-24 14:00:00 15.3 9 Norte 18 Norte 0.8 -- -- 83
2019-05-24 13:00:00 16.8 6 Norte 12 Norte 0.4 -- -- 81
2019-05-24 12:00:00 16.7 3 Este 13 Norte 0.2 -- -- 80
2019-05-24 11:00:00 22.6 0 Calma 12 Oeste 0 -- -- 37
2019-05-24 10:00:00 22.2 7 Oeste 14 Noroeste 0 -- -- 32
2019-05-24 09:00:00 19.6 3 Norte 8 Este 0 -- -- 46
2019-05-24 08:00:00 17.8 0 Calma 10 Norte 0 -- -- 48
2019-05-24 07:00:00 16.2 3 Este 8 Este 0 -- -- 49
2019-05-24 06:00:00 15.2 2 Nordeste 5 Este 0 -- -- 51
2019-05-24 05:00:00 15.3 2 Nordeste 5 Este 0 -- -- 50
2019-05-24 04:00:00 16.3 2 Nordeste 8 Este 0 -- -- 47
2019-05-24 03:00:00 15.9 0 Calma 8 Este 0 -- -- 49
2019-05-24 02:00:00 16.3 2 Nordeste 6 Este 0 -- -- 48
2019-05-24 01:00:00 16.8 5 Este 8 Nordeste 0 -- -- 45
2019-05-24 00:00:00 16.6 3 Nordeste 7 Este 0 -- -- 48
2019-05-23 23:00:00 16.9 3 Este 6 Este 0 -- -- 51
2019-05-23 22:00:00 17.5 5 Norte 8 Norte 0 -- -- 53
2019-05-23 21:00:00 19.4 3 Nordeste 9 Sudeste 0 -- -- 50
2019-05-23 20:00:00 21.3 5 Este 13 Sudeste 0 -- -- 48
2019-05-23 19:00:00 22 8 Sudoeste 18 Sur 0 -- -- 43
2019-05-23 18:00:00 23.5 8 Sudoeste 19 Oeste 0 -- -- 38
2019-05-23 17:00:00 23.8 11 Sudoeste 21 Sudoeste 0 -- -- 38
2019-05-23 16:00:00 24.9 9 Sudoeste 18 Sudoeste 0 -- -- 37
2019-05-23 15:00:00 25.1 9 Sudoeste 19 Sudoeste 0 -- -- 38
2019-05-23 14:00:00 24.1 11 Oeste 19 Sudoeste 0 -- -- 49
2019-05-23 13:00:00 23.5 11 Sudoeste 19 Sudoeste 0 -- -- 46
2019-05-23 12:00:00 22.4 14 Sudoeste 21 Sudoeste 0 -- -- 51
2019-05-23 11:00:00 22.6 12 Sudoeste 19 Sudoeste 0 -- -- 47
2019-05-23 10:00:00 23.1 5 Sudoeste 12 Sur 0 -- -- 45
2019-05-23 09:00:00 23.3 3 Sur 6 Sudeste 0 -- -- 39
2019-05-23 08:00:00 17.6 0 Calma 7 Este 0 -- -- 54
2019-05-23 07:00:00 9.8 4 Este 9 Este 0 -- -- 65
2019-05-23 06:00:00 9.3 2 Nordeste 9 Este 0 -- -- 68
2019-05-23 05:00:00 9.7 4 Este 10 Este 0 -- -- 71
2019-05-23 04:00:00 9.8 2 Nordeste 8 Este 0 -- -- 73
2019-05-23 03:00:00 10.7 3 Nordeste 6 Este 0 -- -- 79
2019-05-23 02:00:00 11.2 3 Este 7 Este 0 -- -- 80
2019-05-23 01:00:00 12.1 3 Este 8 Este 0 -- -- 83
2019-05-23 00:00:00 13 0 Calma 6 Este 0 -- -- 82
2019-05-22 23:00:00 13.7 2 Nordeste 6 Este 0 -- -- 79
2019-05-22 22:00:00 15.1 2 Nordeste 4 Norte 0 -- -- 75
2019-05-22 21:00:00 17.9 0 Calma 13 Sudoeste 0 -- -- 68
2019-05-22 20:00:00 20.7 10 Sudoeste 19 Sudoeste 0 -- -- 64
2019-05-22 19:00:00 21.5 14 Sur 22 Sudoeste 0 -- -- 56
2019-05-22 18:00:00 22.3 15 Sur 29 Sur 0 -- -- 57
2019-05-22 17:00:00 22.2 18 Sudoeste 27 Sudoeste 0 -- -- 60
2019-05-22 16:00:00 22.2 20 Sur 28 Sur 0 -- -- 56
2019-05-22 15:00:00 22.8 16 Sur 29 Sur 0 -- -- 51
2019-05-22 14:00:00 21.9 18 Sur 26 Sur 0 -- -- 57
2019-05-22 13:00:00 21.9 14 Sur 22 Sudoeste 0 -- -- 59
2019-05-22 12:00:00 21.4 12 Sur 19 Sudoeste 0 -- -- 60
2019-05-22 11:00:00 22.2 9 Sudoeste 15 Sudoeste 0 -- -- 61
2019-05-22 10:00:00 21.3 2 Sur 5 Sur 0 -- -- 54
2019-05-22 09:00:00 17.9 0 Calma 5 Este 0 -- -- 64
2019-05-22 08:00:00 12.9 0 Calma 7 Este 0 -- -- 76
2019-05-22 07:00:00 10.2 0 Calma 8 Este 0 -- -- 84
2019-05-22 06:00:00 9.7 2 Nordeste 4 Este 0 -- -- 82
2019-05-22 05:00:00 9.6 2 Nordeste 9 Este 0 -- -- 77
2019-05-22 04:00:00 9.2 3 Nordeste 8 Este 0 -- -- 76
2019-05-22 03:00:00 9.8 5 Este 8 Este 0 -- -- 72
2019-05-22 02:00:00 10.2 2 Norte 8 Este 0 -- -- 74
2019-05-22 01:00:00 10.6 2 Nordeste 5 Este 0 -- -- 74
2019-05-22 00:00:00 11.9 3 Este 8 Este 0 -- -- 72
2019-05-21 23:00:00 13.6 3 Este 6 Este 0 -- -- 72
2019-05-21 22:00:00 14.7 0 Calma 5 Nordeste 0 -- -- 68
2019-05-21 21:00:00 18 3 Sur 13 Sudeste 0 -- -- 57
2019-05-21 20:00:00 20 8 Sudeste 15 Sudeste 0 -- -- 45
2019-05-21 19:00:00 19.7 3 Oeste 11 Sudoeste 0 -- -- 53
2019-05-21 18:00:00 20.2 7 Sudoeste 11 Sudoeste 0 -- -- 54
2019-05-21 17:00:00 20 6 Sudoeste 13 Oeste 0 -- -- 55
2019-05-21 16:00:00 21 8 Oeste 15 Oeste 0 -- -- 52
2019-05-21 15:00:00 21.1 8 Sur 13 Sur 0 -- -- 39
2019-05-21 14:00:00 20.7 6 Sur 13 Sur 0 -- -- 47
2019-05-21 13:00:00 20.7 4 Sur 16 Sudoeste 0 -- -- 49
2019-05-21 12:00:00 19.1 9 Sur 22 Sudoeste 0 -- -- 61
2019-05-21 11:00:00 21 7 Sudoeste 16 Sudoeste 0 -- -- 44
2019-05-21 10:00:00 22.8 5 Sudoeste 12 Sudeste 0 -- -- 45
2019-05-21 09:00:00 21 3 Sur 9 Nordeste 0 -- -- 52
2019-05-21 08:00:00 17.1 0 Calma 6 Este 0 -- -- 69
2019-05-21 07:00:00 11.1 3 Nordeste 6 Este 0 -- -- 76
2019-05-21 06:00:00 11 2 Este 7 Este 0 -- -- 72
2019-05-21 05:00:00 11.5 3 Este 7 Este 0 -- -- 69
2019-05-21 04:00:00 10.7 0 Calma 9 Este 0 -- -- 73
2019-05-21 03:00:00 10.2 0 Calma 7 Este 0 -- -- 74
2019-05-21 02:00:00 10.2 0 Calma 6 Noroeste 0 -- -- 73
2019-05-21 01:00:00 10.7 0 Calma 6 Este 0 -- -- 72
2019-05-21 00:00:00 12.2 3 Nordeste 13 Norte 0 -- -- 68
2019-05-20 23:00:00 14.1 8 Norte 14 Norte 0 -- -- 71
2019-05-20 22:00:00 13.9 0 Calma 5 Nordeste 0 -- -- 67
2019-05-20 21:00:00 16.9 2 Sur 10 Sudoeste 0 -- -- 62
2019-05-20 20:00:00 18.3 5 Sur 22 Sudoeste 0 -- -- 55
2019-05-20 19:00:00 20.9 11 Sudoeste 24 Sur 0 -- -- 40
2019-05-20 18:00:00 22.6 13 Sudoeste 27 Sudoeste 0 -- -- 33
2019-05-20 17:00:00 22.7 18 Sudoeste 29 Sudoeste 0 -- -- 33
2019-05-20 16:00:00 24.1 14 Oeste 28 Noroeste 0 -- -- 29
2019-05-20 15:00:00 23.6 13 Norte 30 Norte 0 -- -- 32
2019-05-20 14:00:00 22.7 14 Noroeste 30 Norte 0 -- -- 34
2019-05-20 13:00:00 22.4 13 Noroeste 28 Noroeste 0 -- -- 36
2019-05-20 12:00:00 21.6 13 Noroeste 32 Noroeste 0 -- -- 40
2019-05-20 11:00:00 21.6 12 Norte 25 Norte 0 -- -- 39
2019-05-20 10:00:00 21.2 6 Norte 27 Norte 0 -- -- 46
2019-05-20 09:00:00 19 12 Norte 32 Norte 0 -- -- 52
2019-05-20 08:00:00 16.6 18 Norte 31 Norte 0 -- -- 66
2019-05-20 07:00:00 12.8 5 Norte 12 Norte 0 -- -- 82
2019-05-20 06:00:00 12.3 6 Norte 12 Oeste 0 -- -- 84
2019-05-20 05:00:00 10.2 3 Nordeste 10 Este 0 -- -- 82
2019-05-20 04:00:00 11.2 3 Este 8 Este 0 -- -- 79
2019-05-20 03:00:00 10.7 2 Nordeste 7 Nordeste 0 -- -- 82
2019-05-20 02:00:00 10.7 2 Este 5 Este 0 -- -- 79
2019-05-20 01:00:00 11.7 3 Noroeste 7 Nordeste 0 -- -- 77
2019-05-20 00:00:00 13 4 Nordeste 7 Este 0 -- -- 72
2019-05-19 23:00:00 13.6 0 Calma 6 Este 0 -- -- 70
2019-05-19 22:00:00 13.8 2 Este 12 Oeste 0 -- -- 64
2019-05-19 21:00:00 16.5 5 Oeste 20 Sudoeste 0 -- -- 53
2019-05-19 20:00:00 18.7 10 Oeste 27 Oeste 0 -- -- 52
2019-05-19 19:00:00 19.4 13 Oeste 29 Sudoeste 0 -- -- 52
2019-05-19 18:00:00 19.3 18 Oeste 32 Sudoeste 0 -- -- 48
2019-05-19 17:00:00 20.6 12 Noroeste 35 Oeste 0 -- -- 41
2019-05-19 16:00:00 20.9 19 Oeste 40 Oeste 0 -- -- 40
2019-05-19 15:00:00 20.8 18 Oeste 38 Noroeste 0 -- -- 43
2019-05-19 14:00:00 19.4 13 Noroeste 36 Oeste 0 -- -- 49
2019-05-19 13:00:00 19.3 17 Sudoeste 39 Sudoeste 0 -- -- 49
2019-05-19 12:00:00 19.2 17 Oeste 34 Oeste 0 -- -- 52
2019-05-19 11:00:00 19.4 7 Norte 31 Noroeste 0 -- -- 52
2019-05-19 10:00:00 18.9 14 Norte 35 Noroeste 0 -- -- 50
2019-05-19 09:00:00 17.3 15 Norte 31 Noroeste 0 -- -- 57
2019-05-19 08:00:00 16.2 16 Norte 30 Noroeste 0 -- -- 62
2019-05-19 07:00:00 13.7 7 Noroeste 27 Norte 0 -- -- 71
2019-05-19 06:00:00 14.1 8 Noroeste 28 Norte 0 -- -- 70
2019-05-19 05:00:00 14.4 8 Norte 21 Norte 0 -- -- 78
2019-05-19 04:00:00 11.7 3 Este 23 Noroeste 0 -- -- 87
2019-05-19 03:00:00 10.4 2 Este 6 Este 0 -- -- 87
2019-05-19 02:00:00 10.5 0 Calma 9 Este 0 -- -- 84
2019-05-19 01:00:00 11 2 Este 4 Este 0 -- -- 80
2019-05-19 00:00:00 12.4 0 Calma 9 Norte 0 -- -- 74
2019-05-18 23:00:00 13.9 2 Norte 4 Nordeste 0 -- -- 71
2019-05-18 22:00:00 15.8 0 Calma 12 Oeste 0 -- -- 67
2019-05-18 21:00:00 16.4 6 Oeste 15 Oeste 0 -- -- 61
2019-05-18 20:00:00 17.1 9 Oeste 21 Sudoeste 0 -- -- 53
2019-05-18 19:00:00 19.1 10 Sudoeste 18 Sudoeste 0 -- -- 43
2019-05-18 18:00:00 19.6 10 Norte 26 Noroeste 0 -- -- 41
2019-05-18 17:00:00 21.4 9 Oeste 22 Oeste 0 -- -- 41
2019-05-18 16:00:00 20 11 Oeste 25 Oeste 0 -- -- 46
2019-05-18 15:00:00 19.9 12 Oeste 23 Oeste 0 -- -- 47
2019-05-18 14:00:00 20.1 11 Oeste 23 Noroeste 0 -- -- 47
2019-05-18 13:00:00 19.9 7 Noroeste 24 Norte 0 -- -- 50
2019-05-18 12:00:00 18.5 8 Norte 21 Norte 0 -- -- 51
2019-05-18 11:00:00 19.3 11 Norte 21 Norte 0 -- -- 49
2019-05-18 10:00:00 18.9 7 Oeste 19 Noroeste 0 -- -- 50
2019-05-18 09:00:00 18.1 5 Noroeste 17 Norte 0 -- -- 53
2019-05-18 08:00:00 16.2 8 Norte 14 Norte 0 -- -- 61
2019-05-18 07:00:00 13.3 4 Norte 13 Noroeste 0 -- -- 77
2019-05-18 06:00:00 11.1 3 Norte 9 Nordeste 0 -- -- 80
2019-05-18 05:00:00 13.4 5 Norte 11 Norte 0 -- -- 75
2019-05-18 04:00:00 14.4 3 Noroeste 25 Noroeste 0 -- -- 69
2019-05-18 03:00:00 15.8 13 Noroeste 31 Noroeste 0 -- -- 70
2019-05-18 02:00:00 15.9 12 Noroeste 32 Noroeste 0 -- -- 66
2019-05-18 01:00:00 16.2 15 Noroeste 38 Noroeste 0 -- -- 63
2019-05-18 00:00:00 16.2 15 Noroeste 41 Norte 0 -- -- 65
2019-05-17 23:00:00 16 13 Norte 25 Noroeste 0 -- -- 67
2019-05-17 22:00:00 15.4 7 Norte 24 Norte 0 -- -- 69
2019-05-17 21:00:00 15.7 8 Norte 24 Norte 0 -- -- 67
2019-05-17 20:00:00 16.9 15 Norte 35 Noroeste 0 -- -- 64
2019-05-17 19:00:00 18.2 13 Noroeste 46 Noroeste 0 -- -- 61
2019-05-17 18:00:00 18.6 19 Noroeste 55 Norte 0 -- -- 59
2019-05-17 17:00:00 19.4 18 Norte 47 Noroeste 0 -- -- 55
2019-05-17 16:00:00 18.9 18 Noroeste 56 Oeste 0 -- -- 55
2019-05-17 15:00:00 19.7 22 Oeste 68 Noroeste 0 -- -- 49
2019-05-17 14:00:00 19.5 19 Oeste 51 Norte 0 -- -- 49
2019-05-17 13:00:00 19 24 Norte 55 Noroeste 0 -- -- 54
2019-05-17 12:00:00 18.6 23 Norte 69 Noroeste 0 -- -- 66
2019-05-17 11:00:00 19.1 23 Noroeste 46 Noroeste 0 -- -- 68
2019-05-17 10:00:00 18.6 5 Sudoeste 13 Sudoeste 0 -- -- 73
2019-05-17 09:00:00 17.3 2 Sudeste 10 Este 0 -- -- 75
2019-05-17 08:00:00 16.2 5 Este 16 Nordeste 0 -- -- 76
2019-05-17 07:00:00 15.7 6 Nordeste 17 Nordeste 0 -- -- 77
2019-05-17 06:00:00 15.3 6 Nordeste 19 Este 0 -- -- 77
2019-05-17 05:00:00 15.2 5 Este 22 Nordeste 0 -- -- 78
2019-05-17 04:00:00 15 8 Nordeste 19 Este 0 -- -- 79
2019-05-17 03:00:00 14.9 8 Nordeste 23 Este 0 -- -- 79
2019-05-17 02:00:00 15.1 10 Nordeste 24 Este 0 -- -- 78
2019-05-17 01:00:00 15.2 9 Nordeste 19 Este 0 -- -- 78
2019-05-17 00:00:00 15.4 7 Este 22 Este 0 -- -- 76
2019-05-16 23:00:00 15.5 8 Este 24 Sudeste 0 -- -- 73
2019-05-16 22:00:00 15.9 8 Este 23 Este 0 -- -- 70
2019-05-16 21:00:00 16.2 8 Este 26 Sudeste 0 -- -- 67
2019-05-16 20:00:00 18.7 10 Sudeste 26 Sudeste 0 -- -- 60
2019-05-16 19:00:00 20.3 12 Sudeste 26 Sudeste 0 -- -- 53
2019-05-16 18:00:00 20.8 14 Sudeste 26 Sur 0 -- -- 48
2019-05-16 17:00:00 20.8 14 Sudeste 27 Sur 0 -- -- 47
2019-05-16 16:00:00 21 13 Sur 28 Sur 0 -- -- 41
2019-05-16 15:00:00 21.3 13 Sudeste 27 Sudeste 0 -- -- 43
2019-05-16 14:00:00 21 12 Sur 35 Sur 0 -- -- 44
2019-05-16 13:00:00 20.8 13 Sudoeste 28 Sudoeste 0 -- -- 49
2019-05-16 12:00:00 19.8 15 Sudoeste 27 Sudoeste 0 -- -- 56
2019-05-16 11:00:00 19.8 9 Sudoeste 21 Sur 0 -- -- 53
2019-05-16 10:00:00 19.3 8 Sur 15 Sudeste 0 -- -- 55
2019-05-16 09:00:00 19.6 4 Sudeste 10 Sudeste 0 -- -- 54
2019-05-16 08:00:00 15 0 Calma 6 Este 0 -- -- 63
2019-05-16 07:00:00 8.6 4 Nordeste 8 Este 0 -- -- 74
2019-05-16 06:00:00 8.7 2 Nordeste 5 Este 0 -- -- 74
2019-05-16 05:00:00 10.1 0 Calma 9 Nordeste 0 -- -- 75
2019-05-16 04:00:00 10.2 3 Nordeste 5 Nordeste 0 -- -- 79
2019-05-16 03:00:00 10.8 4 Este 9 Nordeste 0 -- -- 74
2019-05-16 02:00:00 11.1 6 Norte 10 Norte 0 -- -- 66
2019-05-16 01:00:00 10.5 0 Calma 4 Sur 0 -- -- 53
2019-05-16 00:00:00 11.5 0 Calma 4 Este 0 -- -- 48
2019-05-15 23:00:00 13.2 2 Nordeste 7 Nordeste 0 -- -- 43
2019-05-15 22:00:00 15.1 4 Nordeste 21 Este 0 -- -- 36
2019-05-15 21:00:00 17.6 9 Este 28 Este 0 -- -- 33
2019-05-15 20:00:00 20 12 Este 30 Este 0 -- -- 34
2019-05-15 19:00:00 21.8 13 Sudeste 23 Sudeste 0 -- -- 48
2019-05-15 18:00:00 22.1 12 Sudeste 24 Sudoeste 0 -- -- 58
2019-05-15 17:00:00 21.2 16 Sudoeste 28 Sudoeste 0 -- -- 66
2019-05-15 16:00:00 22.1 14 Sudoeste 21 Sudoeste 0 -- -- 56
2019-05-15 15:00:00 21.6 13 Sudoeste 23 Sudoeste 0 -- -- 61
2019-05-15 14:00:00 21.5 16 Sudoeste 25 Sudoeste 0 -- -- 61
2019-05-15 13:00:00 21.9 14 Sudoeste 24 Sur 0 -- -- 63
2019-05-15 12:00:00 20.7 15 Sur 23 Sur 0 -- -- 66
2019-05-15 11:00:00 20.8 13 Sur 21 Sudoeste 0 -- -- 61
2019-05-15 10:00:00 20.5 8 Sur 13 Sur 0 -- -- 60
2019-05-15 09:00:00 20.7 3 Oeste 5 Sur 0 -- -- 62
2019-05-15 08:00:00 16.1 3 Este 9 Este 0 -- -- 74
2019-05-15 07:00:00 9.4 3 Este 6 Este 0 -- -- 84
2019-05-15 06:00:00 9 2 Este 6 Este 0 -- -- 85
2019-05-15 05:00:00 9.8 3 Nordeste 9 Este 0 -- -- 84
2019-05-15 04:00:00 9.8 2 Nordeste 8 Este 0 -- -- 84
2019-05-15 03:00:00 10.9 3 Este 6 Este 0 -- -- 82
2019-05-15 02:00:00 11 3 Este 8 Este 0 -- -- 80
2019-05-15 01:00:00 11 3 Este 7 Este 0 -- -- 77
2019-05-15 00:00:00 11.8 3 Nordeste 6 Este 0 -- -- 72
2019-05-14 23:00:00 12.6 0 Calma 5 Este 0 -- -- 70
2019-05-14 22:00:00 14 0 Calma 4 Este 0 -- -- 66
2019-05-14 21:00:00 16.5 0 Calma 10 Sudoeste 0 -- -- 59
2019-05-14 20:00:00 20.3 5 Sudoeste 17 Sur 0 -- -- 43
2019-05-14 19:00:00 22.1 12 Sur 21 Sudoeste 0 -- -- 34
2019-05-14 18:00:00 23.2 12 Oeste 24 Oeste 0 -- -- 29
2019-05-14 17:00:00 23.9 13 Oeste 24 Sudoeste 0 -- -- 29
2019-05-14 16:00:00 24.2 12 Sudoeste 24 Sudoeste 0 -- -- 30
2019-05-14 15:00:00 24.3 12 Sudoeste 26 Sudoeste 0 -- -- 32
2019-05-14 14:00:00 24.4 12 Oeste 25 Oeste 0 -- -- 34
2019-05-14 13:00:00 24.1 13 Oeste 23 Oeste 0 -- -- 38
2019-05-14 12:00:00 23.2 12 Noroeste 24 Noroeste 0 -- -- 39
2019-05-14 11:00:00 21.6 14 Norte 27 Norte 0 -- -- 44
2019-05-14 10:00:00 20.9 12 Norte 27 Norte 0 -- -- 44
2019-05-14 09:00:00 20.2 8 Norte 21 Nordeste 0 -- -- 48
2019-05-14 08:00:00 15.7 0 Calma 6 Este 0 -- -- 70
2019-05-14 07:00:00 9.4 0 Calma 8 Noroeste 0 -- -- 79
2019-05-14 06:00:00 10.5 2 Sur 8 Este 0 -- -- 74
2019-05-14 05:00:00 8.1 3 Nordeste 6 Este 0 -- -- 68
2019-05-14 04:00:00 8.2 0 Calma 7 Nordeste 0 -- -- 66
2019-05-14 03:00:00 9.1 4 Nordeste 7 Este 0 -- -- 63
2019-05-14 02:00:00 9.3 3 Este 6 Este 0 -- -- 64
2019-05-14 01:00:00 10.3 3 Nordeste 8 Norte 0 -- -- 63
2019-05-14 00:00:00 11.4 2 Nordeste 8 Noroeste 0 -- -- 61
2019-05-13 23:00:00 13.7 4 Norte 14 Norte 0 -- -- 52
2019-05-13 22:00:00 14.6 3 Nordeste 12 Este 0 -- -- 49
2019-05-13 21:00:00 16.5 0 Calma 15 Norte 0 -- -- 40
2019-05-13 20:00:00 20.3 8 Nordeste 26 Noroeste 0 -- -- 27
2019-05-13 19:00:00 21.2 9 Norte 27 Norte 0 -- -- 28
2019-05-13 18:00:00 22.2 13 Norte 27 Nordeste 0 -- -- 35
2019-05-13 17:00:00 22.1 9 Norte 27 Norte 0 -- -- 39
2019-05-13 16:00:00 21.7 7 Noroeste 34 Norte 0 -- -- 43
2019-05-13 15:00:00 21.4 10 Norte 33 Norte 0 -- -- 50
2019-05-13 14:00:00 20.5 13 Noroeste 26 Norte 0 -- -- 59
2019-05-13 13:00:00 21.2 13 Norte 28 Oeste 0 -- -- 58
2019-05-13 12:00:00 20.3 9 Noroeste 27 Noroeste 0 -- -- 61
2019-05-13 11:00:00 19 12 Oeste 30 Noroeste 0 -- -- 63
2019-05-13 10:00:00 18.3 10 Noroeste 24 Oeste 0 -- -- 70
2019-05-13 09:00:00 17.7 12 Oeste 25 Oeste 0 -- -- 74
2019-05-13 08:00:00 16.5 9 Oeste 21 Oeste 0 -- -- 80
2019-05-13 07:00:00 10.8 3 Norte 8 Sudoeste 0 -- -- 83
2019-05-13 06:00:00 9.1 5 Este 8 Este 0 -- -- 81
2019-05-13 05:00:00 8.9 3 Este 8 Este 0 -- -- 83
2019-05-13 04:00:00 9.4 2 Nordeste 8 Este 0 -- -- 82
2019-05-13 03:00:00 10.4 2 Este 9 Este 0 -- -- 80
2019-05-13 02:00:00 11.5 3 Nordeste 10 Este 0 -- -- 79
2019-05-13 01:00:00 13 4 Nordeste 9 Norte 0 -- -- 76
2019-05-13 00:00:00 14.3 3 Nordeste 12 Este 0 -- -- 71
2019-05-12 23:00:00 16.4 8 Este 27 Este 0 -- -- 68
2019-05-12 22:00:00 16.8 10 Este 23 Este 0 -- -- 65
2019-05-12 21:00:00 16.4 4 Este 16 Sudoeste 0 -- -- 50
2019-05-12 20:00:00 21.8 4 Oeste 14 Noroeste 0 -- -- 37
2019-05-12 19:00:00 22.3 11 Noroeste 22 Noroeste 0 -- -- 36
2019-05-12 18:00:00 22 13 Norte 28 Norte 0 -- -- 38
2019-05-12 17:00:00 22.6 17 Norte 35 Noroeste 0 -- -- 42
2019-05-12 16:00:00 22.3 15 Oeste 37 Oeste 0 -- -- 44
2019-05-12 15:00:00 21.7 19 Oeste 38 Oeste 0 -- -- 50
2019-05-12 14:00:00 21.7 20 Oeste 34 Oeste 0 -- -- 53
2019-05-12 13:00:00 22.1 15 Oeste 34 Oeste 0 -- -- 51
2019-05-12 12:00:00 21.1 12 Oeste 26 Oeste 0 -- -- 50
2019-05-12 11:00:00 20.9 11 Norte 28 Noroeste 0 -- -- 50
2019-05-12 10:00:00 20.2 15 Noroeste 31 Noroeste 0 -- -- 50
2019-05-12 09:00:00 18.8 16 Norte 28 Norte 0 -- -- 57
2019-05-12 08:00:00 17.3 9 Norte 16 Norte 0 -- -- 73
2019-05-12 07:00:00 12.7 9 Norte 17 Noroeste 0 -- -- 86
2019-05-12 06:00:00 12.1 7 Norte 12 Noroeste 0 -- -- 86
2019-05-12 05:00:00 10.5 3 Norte 6 Noroeste 0 -- -- 82
2019-05-12 04:00:00 11.2 0 Calma 5 Noroeste 0 -- -- 79
2019-05-12 03:00:00 12 3 Norte 9 Norte 0 -- -- 74
2019-05-12 02:00:00 14.8 4 Norte 16 Nordeste 0 -- -- 67
2019-05-12 01:00:00 15.2 5 Nordeste 17 Nordeste 0 -- -- 69
2019-05-12 00:00:00 15.3 4 Norte -- -- 0 -- -- 69
2019-05-11 23:00:00 16.4 7 Nordeste 23 Nordeste 0 -- -- 66
2019-05-11 22:00:00 17.7 5 Nordeste 21 Nordeste 0 -- -- 62
2019-05-11 21:00:00 19.6 4 Este 17 Este 0 -- -- 59
2019-05-11 20:00:00 22.7 8 Este 23 Este 0 -- -- 52
2019-05-11 19:00:00 24.4 12 Este 24 Este 0 -- -- 48
2019-05-11 18:00:00 26.2 9 Nordeste 23 Este 0 -- -- 46
2019-05-11 17:00:00 26.5 13 Este 28 Sudeste 0 -- -- 47
2019-05-11 16:00:00 26.4 17 Sudeste 28 Sudeste 0 -- -- 51
2019-05-11 15:00:00 28.6 9 Sur 20 Sur 0 -- -- 43
2019-05-11 14:00:00 27.4 14 Sudoeste 21 Sur 0 -- -- 47
2019-05-11 13:00:00 25.6 13 Sur 20 Sudoeste 0 -- -- 55
2019-05-11 12:00:00 24 12 Sur 19 Sur 0 -- -- 59
2019-05-11 11:00:00 25 10 Sudoeste 19 Sudoeste 0 -- -- 56
2019-05-11 10:00:00 25.9 5 Sur 10 Sudeste 0 -- -- 54
2019-05-11 09:00:00 23.5 5 Sudeste 9 Este 0 -- -- 63
2019-05-11 08:00:00 19.2 0 Calma 6 Este 0 -- -- 79
2019-05-11 07:00:00 14 0 Calma 9 Este 0 -- -- 88
2019-05-11 06:00:00 13.7 0 Calma 5 Este 0 -- -- 88
2019-05-11 05:00:00 14.3 3 Norte 7 Este 0 -- -- 86
2019-05-11 04:00:00 15 2 Este 6 Este 0 -- -- 85
2019-05-11 03:00:00 15.2 2 Nordeste 7 Este 0 -- -- 84
2019-05-11 02:00:00 15.9 3 Este 7 Nordeste 0 -- -- 84
2019-05-11 01:00:00 15.4 3 Este 5 Este 0 -- -- 86
2019-05-11 00:00:00 15.6 2 Norte 5 Norte 0 -- -- 86
2019-05-10 23:00:00 16.5 2 Nordeste 6 Norte 0 -- -- 85
2019-05-10 22:00:00 17.8 2 Nordeste 6 Nordeste 0 -- -- 82
2019-05-10 21:00:00 19.3 0 Calma 14 Sur 0 -- -- 78
2019-05-10 20:00:00 22.2 6 Sudoeste 12 Sudoeste 0 -- -- 68
2019-05-10 19:00:00 24.8 4 Sur 17 Sur 0 -- -- 59
2019-05-10 18:00:00 23.7 10 Sudoeste 20 Sudoeste 0 -- -- 64
2019-05-10 17:00:00 22.6 14 Sudoeste 26 Sur 0 -- -- 66
2019-05-10 16:00:00 26.3 15 Sur 29 Sur 0 -- -- 53
2019-05-10 15:00:00 25.6 15 Sur 24 Sur 0 -- -- 57
2019-05-10 14:00:00 27.6 13 Sudoeste 27 Sur 0 -- -- 51
2019-05-10 13:00:00 25.7 18 Sudoeste 29 Sudoeste 0 -- -- 58
2019-05-10 12:00:00 26.4 12 Sudoeste 26 Oeste 0 -- -- 55
2019-05-10 11:00:00 25.6 14 Oeste 25 Sudoeste 0 -- -- 56
2019-05-10 10:00:00 23.6 9 Sur 18 Sudoeste 0 -- -- 68
2019-05-10 09:00:00 21.9 6 Sur 10 Sur 0 -- -- 77
2019-05-10 08:00:00 17.8 4 Este 6 Este 0 -- -- 88
2019-05-10 07:00:00 12.8 3 Noroeste 5 Este 0 -- -- 91
2019-05-10 06:00:00 12.9 4 Nordeste 7 Este 0 -- -- 89
2019-05-10 05:00:00 12.6 2 Este 6 Nordeste 0 -- -- 86
2019-05-10 04:00:00 13 2 Este 6 Este 0 -- -- 82
2019-05-10 03:00:00 13.5 0 Calma 8 Norte 0 -- -- 77
2019-05-10 02:00:00 14.2 3 Nordeste 12 Nordeste 0 -- -- 71
2019-05-10 01:00:00 14.1 3 Nordeste 6 Este 0 -- -- 66
2019-05-10 00:00:00 14.8 3 Este 8 Este 0 -- -- 60
2019-05-09 23:00:00 15.1 4 Este 6 Este 0 -- -- 59
2019-05-09 22:00:00 14.6 0 Calma 4 Noroeste 0 -- -- 62
2019-05-09 21:00:00 16.4 3 Noroeste 11 Sudoeste 0 -- -- 63
2019-05-09 20:00:00 20 6 Sur 23 Sudoeste 0 -- -- 49
2019-05-09 19:00:00 21.6 14 Sudoeste 33 Oeste 0 -- -- 37
2019-05-09 18:00:00 24.4 12 Noroeste 28 Oeste 0 -- -- 34
2019-05-09 17:00:00 23.2 10 Oeste 28 Oeste 0 -- -- 35
2019-05-09 16:00:00 24.4 11 Sudoeste 29 Oeste 0 -- -- 30
2019-05-09 15:00:00 24.7 14 Oeste 27 Oeste 0 -- -- 28
2019-05-09 14:00:00 25.5 11 Norte 26 Noroeste 0 -- -- 29
2019-05-09 13:00:00 25.2 12 Norte 29 Noroeste 0 -- -- 27
2019-05-09 12:00:00 24.3 11 Norte 33 Norte 0 -- -- 27
2019-05-09 11:00:00 23.2 19 Norte 39 Norte 0 -- -- 30
2019-05-09 10:00:00 21.3 15 Norte 31 Norte 0 -- -- 38
2019-05-09 09:00:00 21.4 11 Nordeste 31 Norte 0 -- -- 44
2019-05-09 08:00:00 20.6 13 Norte 26 Norte 0 -- -- 49
2019-05-09 07:00:00 18.9 14 Noroeste 32 Noroeste 0 -- -- 64
2019-05-09 06:00:00 20.1 16 Oeste 46 Noroeste 0 -- -- 60
2019-05-09 05:00:00 20.6 17 Noroeste 46 Noroeste 0 -- -- 58
2019-05-09 04:00:00 21.4 19 Noroeste 45 Noroeste 0 -- -- 55
2019-05-09 03:00:00 21.7 22 Oeste 46 Noroeste 0 -- -- 59
2019-05-09 02:00:00 20.9 14 Oeste 48 Oeste 0 -- -- 64
2019-05-09 01:00:00 21.3 21 Oeste 49 Sudoeste 0 -- -- 63
2019-05-09 00:00:00 21.1 15 Oeste 32 Oeste 0 -- -- 65
2019-05-08 23:00:00 18.9 7 Sudoeste 14 Sudoeste 0 -- -- 81
2019-05-08 22:00:00 18.7 5 Sudoeste 13 Sudoeste 0 -- -- 82
2019-05-08 21:00:00 18.5 10 Sudoeste 21 Sudoeste 0 -- -- 82
2019-05-08 20:00:00 19.6 4 Oeste 20 Sur 0 -- -- 78
2019-05-08 19:00:00 19.5 10 Sudoeste 21 Sudoeste 0 -- -- 79
2019-05-08 18:00:00 20.5 7 Sur 23 Sudoeste 0 -- -- 79
2019-05-08 17:00:00 20.6 11 Sudoeste 26 Sudoeste 0 -- -- 77
2019-05-08 16:00:00 20.8 14 Sur 25 Sur 0 -- -- 75
2019-05-08 15:00:00 21.5 13 Sur 23 Sudoeste 0 -- -- 73
2019-05-08 14:00:00 21.2 11 Sur 21 Sur 0 -- -- 74
2019-05-08 13:00:00 20 14 Sudoeste 21 Sudoeste 0 -- -- 76
2019-05-08 12:00:00 19.2 12 Sudoeste 22 Sudoeste 0 -- -- 77
2019-05-08 11:00:00 18.9 7 Sudoeste 15 Sudoeste 0 -- -- 79
2019-05-08 10:00:00 18.1 4 Sudoeste 13 Sudoeste 0 -- -- 83
2019-05-08 09:00:00 17.2 7 Sudoeste 14 Sur 0 -- -- 86
2019-05-08 08:00:00 16.3 0 Calma 5 Noroeste 0 -- -- 86
2019-05-08 07:00:00 15.5 0 Calma 5 Norte 0 -- -- 86
2019-05-08 06:00:00 15.5 3 Norte 6 Norte 0 -- -- 87
2019-05-08 05:00:00 15 0 Calma 4 Nordeste 0 -- -- 87
2019-05-08 04:00:00 14.9 2 Nordeste 8 Nordeste 0 -- -- 85
2019-05-08 03:00:00 16 3 Nordeste 8 Nordeste 0 -- -- 84
2019-05-08 02:00:00 16.1 4 Nordeste 11 Este 0 -- -- 84
2019-05-08 01:00:00 16.2 6 Nordeste 13 Nordeste 0 -- -- 83
2019-05-08 00:00:00 16.2 6 Nordeste 13 Nordeste 0 -- -- 82
2019-05-07 23:00:00 15.9 3 Este 9 Este 0 -- -- 83
2019-05-07 22:00:00 15.9 3 Este 11 Este 0 -- -- 82
2019-05-07 21:00:00 16.2 7 Este 18 Sudeste 0 -- -- 79
2019-05-07 20:00:00 17.1 8 Este 21 Este 0 -- -- 73
2019-05-07 19:00:00 19.6 12 Sudeste 25 Sudeste 0 -- -- 64
2019-05-07 18:00:00 19.7 12 Sudeste 23 Sudeste 0 -- -- 63
2019-05-07 17:00:00 20.5 13 Sudeste 25 Sudeste 0 -- -- 60
2019-05-07 16:00:00 21 12 Sudeste 30 Sur 0 -- -- 59
2019-05-07 15:00:00 21 16 Sur 30 Sudeste 0 -- -- 57
2019-05-07 14:00:00 21.1 14 Sur 30 Sudeste 0 -- -- 52
2019-05-07 13:00:00 20.6 14 Sudeste 25 Sudeste 0 -- -- 56
2019-05-07 12:00:00 19.9 12 Sudeste 25 Este 0 -- -- 64
2019-05-07 11:00:00 19 13 Sudeste 23 Sudeste 0 -- -- 69
2019-05-07 10:00:00 18.9 10 Sudeste 24 Sudeste 0 -- -- 73
2019-05-07 09:00:00 17.9 6 Este 15 Este 0 -- -- 88
2019-05-07 08:00:00 12 3 Nordeste 7 Nordeste 0 -- -- 95
2019-05-07 07:00:00 9.6 3 Nordeste 6 Este 0 -- -- 94
2019-05-07 06:00:00 9.5 3 Este 8 Este 0 -- -- 94
2019-05-07 05:00:00 9.5 4 Este 7 Este 0 -- -- 94
2019-05-07 04:00:00 9.8 5 Este 9 Este 0 -- -- 93
2019-05-07 03:00:00 9.6 2 Este 5 Este 0 -- -- 92
2019-05-07 02:00:00 10 3 Este 7 Este 0 -- -- 91
2019-05-07 01:00:00 10.5 3 Este 7 Este 0 -- -- 90
2019-05-07 00:00:00 10.6 2 Este 5 Este 0 -- -- 87
2019-05-06 23:00:00 11.4 2 Este 5 Este 0 -- -- 84
2019-05-06 22:00:00 12.9 0 Calma 6 Sur 0 -- -- 80
2019-05-06 21:00:00 15.5 4 Sur 12 Sudoeste 0 -- -- 73
2019-05-06 20:00:00 17.3 6 Sudoeste 15 Sur 0 -- -- 69
2019-05-06 19:00:00 17.6 10 Sudoeste 20 Sudoeste 0 -- -- 68
2019-05-06 18:00:00 18.3 13 Sudoeste 24 Sur 0 -- -- 66
2019-05-06 17:00:00 18.9 13 Sudoeste 24 Sudoeste 0 -- -- 62
2019-05-06 16:00:00 19.1 13 Sudoeste 24 Sudoeste 0 -- -- 60
2019-05-06 15:00:00 17.7 14 Sudoeste 25 Sudoeste 0 -- -- 61
2019-05-06 14:00:00 19 13 Sudoeste 25 Sudoeste 0 -- -- 55
2019-05-06 13:00:00 18.7 10 Sur 21 Sur 0 -- -- 52
2019-05-06 12:00:00 18.9 11 Sudeste 23 Sudeste 0 -- -- 50
2019-05-06 11:00:00 17.3 10 Sur 21 Sudeste 0 -- -- 54
2019-05-06 10:00:00 17.9 9 Sudeste 19 Sudeste 0 -- -- 51
2019-05-06 09:00:00 16.1 6 Este 14 Este 0 -- -- 58
2019-05-06 08:00:00 11.9 5 Norte 11 Nordeste 0 -- -- 74
2019-05-06 07:00:00 9.5 3 Norte 9 Norte 0 -- -- 81
2019-05-06 06:00:00 10.2 2 Nordeste 11 Norte 0 -- -- 78
2019-05-06 05:00:00 11.8 8 Norte 16 Norte 0 -- -- 86
2019-05-06 04:00:00 9.8 5 Este 10 Este 0 -- -- 88
2019-05-06 03:00:00 11 4 Nordeste 12 Norte 0 -- -- 85
2019-05-06 02:00:00 12.4 3 Norte 10 Nordeste 0 -- -- 84
2019-05-06 01:00:00 10.9 3 Este 8 Este 0 -- -- 81
2019-05-06 00:00:00 11.6 4 Norte 7 Noroeste 0 -- -- 77
2019-05-05 23:00:00 12 0 Calma 7 Norte 0 -- -- 74
2019-05-05 22:00:00 12.4 5 Norte 8 Norte 0 -- -- 70
2019-05-05 21:00:00 14.2 4 Sudoeste 16 Sudoeste 0 -- -- 62
2019-05-05 20:00:00 16 10 Sudoeste 17 Sudoeste 0 -- -- 56
2019-05-05 19:00:00 17.1 9 Sudoeste 26 Oeste 0 -- -- 53
2019-05-05 18:00:00 17.7 12 Oeste 29 Sudoeste 0 -- -- 50
2019-05-05 17:00:00 18.4 13 Oeste 30 Sudoeste 0 -- -- 50
2019-05-05 16:00:00 17.9 18 Sudoeste 35 Oeste 0 -- -- 46
2019-05-05 15:00:00 18.2 22 Sudoeste 35 Sudoeste 0 -- -- 39
2019-05-05 14:00:00 19.1 17 Oeste 32 Sudoeste 0 -- -- 43
2019-05-05 13:00:00 18.3 15 Sudoeste 28 Sudoeste 0 -- -- 45
2019-05-05 12:00:00 17.9 14 Sudoeste 27 Sudoeste 0 -- -- 44
2019-05-05 11:00:00 18.1 11 Sudeste 25 Sur 0 -- -- 43
2019-05-05 10:00:00 17.8 7 Este 15 Nordeste 0 -- -- 46
2019-05-05 09:00:00 17.6 5 Sudeste 14 Sudeste 0 -- -- 54
2019-05-05 08:00:00 14.8 5 Este 21 Este 0 -- -- 65
2019-05-05 07:00:00 13.4 5 Este 24 Noroeste 0 -- -- 71
2019-05-05 06:00:00 14.1 14 Norte 36 Nordeste 0 -- -- 66
2019-05-05 05:00:00 14.9 19 Noroeste 34 Noroeste 0 -- -- 64
2019-05-05 04:00:00 15.8 11 Oeste 32 Noroeste 0 -- -- 74
2019-05-05 03:00:00 15.6 8 Oeste 21 Sudoeste 0 -- -- 82
2019-05-05 02:00:00 14.6 6 Noroeste 24 Oeste 0 -- -- 80
2019-05-05 01:00:00 15.7 12 Sudoeste 23 Sudoeste 0 -- -- 77
2019-05-05 00:00:00 15.3 10 Sudoeste 22 Sudoeste 0 -- -- 75
2019-05-04 23:00:00 15.4 9 Sudoeste 26 Sudoeste 0 -- -- 73
2019-05-04 22:00:00 13.2 2 Oeste 11 Oeste 0 -- -- 76
2019-05-04 21:00:00 14.7 4 Oeste 18 Oeste 0 -- -- 68
2019-05-04 20:00:00 17 9 Oeste 25 Oeste 0 -- -- 56
2019-05-04 19:00:00 18.3 12 Oeste 23 Sudoeste 0 -- -- 48
2019-05-04 18:00:00 18.8 13 Oeste 28 Oeste 0 -- -- 48
2019-05-04 17:00:00 20 16 Oeste 31 Oeste 0 -- -- 49
2019-05-04 16:00:00 19.6 18 Oeste 31 Oeste 0 -- -- 46
2019-05-04 15:00:00 20.5 15 Noroeste 30 Norte 0 -- -- 48
2019-05-04 14:00:00 19.5 17 Norte 34 Noroeste 0 -- -- 53
2019-05-04 13:00:00 18.8 13 Noroeste 26 Norte 0 -- -- 58
2019-05-04 12:00:00 18.6 13 Norte 28 Norte 0 -- -- 62
2019-05-04 11:00:00 18.1 11 Noroeste 24 Norte 0 -- -- 68
2019-05-04 10:00:00 16.8 15 Noroeste 27 Norte 0 -- -- 75
2019-05-04 09:00:00 16.1 5 Norte 16 Norte 0 -- -- 89
2019-05-04 08:00:00 12.1 0 Calma 4 Este 0 -- -- 93
2019-05-04 07:00:00 8.3 2 Nordeste 4 Nordeste 0 -- -- 95
2019-05-04 06:00:00 10.1 0 Calma 5 Norte 0 -- -- 94
2019-05-04 05:00:00 12 4 Nordeste 13 Nordeste 0 -- -- 94
2019-05-04 04:00:00 11.4 3 Nordeste 13 Norte 0 -- -- 95
2019-05-04 03:00:00 11.3 10 Norte 24 Norte 0 -- -- 95
2019-05-04 02:00:00 9.7 2 Noroeste 10 Este 0 -- -- 95
2019-05-04 01:00:00 9.8 0 Calma 5 Este 0 -- -- 94
2019-05-04 00:00:00 10.7 3 Este 5 Este 0 -- -- 93
2019-05-03 23:00:00 12.3 4 Norte 8 Norte 0 -- -- 92
2019-05-03 22:00:00 12.6 3 Este 14 Nordeste 0.4 -- -- 91
2019-05-03 21:00:00 12.9 5 Norte 16 Nordeste 0.4 -- -- 91
2019-05-03 20:00:00 13.9 3 Norte 8 Noroeste 1.2 -- -- 89
2019-05-03 19:00:00 14.4 0 Calma 15 Nordeste 1.2 -- -- 85
2019-05-03 18:00:00 16.5 9 Nordeste 19 Nordeste 0 -- -- 70
2019-05-03 17:00:00 18.1 8 Norte 19 Norte 0 -- -- 64
2019-05-03 16:00:00 17.5 9 Noroeste 17 Noroeste 0 -- -- 67
2019-05-03 15:00:00 18.5 12 Sudoeste 24 Sur 0 -- -- 59
2019-05-03 14:00:00 21.1 14 Sur 24 Sudoeste 0 -- -- 53
2019-05-03 13:00:00 19.7 14 Sudoeste 27 Sudoeste 0 -- -- 53
2019-05-03 12:00:00 20.9 11 Sur 29 Sudeste 0 -- -- 49
2019-05-03 11:00:00 21.2 10 Sudeste 25 Sudeste 0 -- -- 42
2019-05-03 10:00:00 20.9 5 Sur 14 Sur 0 -- -- 54
2019-05-03 09:00:00 16 0 Calma 6 Este 0 -- -- 76
2019-05-03 08:00:00 11 0 Calma 5 Nordeste 0 -- -- 86
2019-05-03 07:00:00 9 0 Calma 6 Este 0 -- -- 89
2019-05-03 06:00:00 8.9 3 Este 6 Nordeste 0 -- -- 89
2019-05-03 05:00:00 9.8 4 Este 8 Este 0 -- -- 89
2019-05-03 04:00:00 10.5 3 Este 6 Este 0 -- -- 88
2019-05-03 03:00:00 11.2 2 Nordeste 9 Norte 0 -- -- 85
2019-05-03 02:00:00 11.6 4 Nordeste 9 Nordeste 0 -- -- 88
2019-05-03 01:00:00 10.7 0 Calma 6 Norte 0 -- -- 87
2019-05-03 00:00:00 11.8 3 Nordeste 5 Nordeste 0 -- -- 84
2019-05-02 23:00:00 12.7 2 Nordeste 7 Nordeste 0 -- -- 80
2019-05-02 22:00:00 14 3 Nordeste 7 Nordeste 0 -- -- 77
2019-05-02 21:00:00 16 2 Este 12 Sudoeste 0 -- -- 71
2019-05-02 20:00:00 18.7 4 Sudoeste 14 Sudoeste 0 -- -- 65
2019-05-02 19:00:00 19.4 10 Sudoeste 17 Sudoeste 0 -- -- 65
2019-05-02 18:00:00 20 11 Oeste 23 Sudoeste 0 -- -- 64
2019-05-02 17:00:00 20.6 4 Sudoeste 19 Sudoeste 0 -- -- 63
2019-05-02 16:00:00 20.7 8 Sudoeste 17 Sudoeste 0 -- -- 58
2019-05-02 15:00:00 19 7 Sur 17 Sudoeste 0 -- -- 64
2019-05-02 14:00:00 19.4 12 Sudoeste 19 Oeste 0 -- -- 62
2019-05-02 13:00:00 21.1 4 Este 13 Este 0 -- -- 46
2019-05-02 12:00:00 20.8 8 Nordeste 17 Nordeste 0 -- -- 44
2019-05-02 11:00:00 20.2 6 Sudeste 12 Este 0 -- -- 43
2019-05-02 10:00:00 18.9 2 Sudeste 6 Este 0 -- -- 52
2019-05-02 09:00:00 16.9 0 Calma 6 Este 0 -- -- 64
2019-05-02 08:00:00 14.6 0 Calma 4 Nordeste 0 -- -- 65
2019-05-02 07:00:00 12.6 3 Nordeste 5 Norte 0 -- -- 71
2019-05-02 06:00:00 13.7 3 Norte 7 Este 0 -- -- 65
2019-05-02 05:00:00 13.5 2 Nordeste 9 Nordeste 0 -- -- 63
2019-05-02 04:00:00 14.9 4 Nordeste 13 Nordeste 0 -- -- 59
2019-05-02 03:00:00 14.8 8 Nordeste 14 Nordeste 0 -- -- 63
2019-05-02 02:00:00 13 3 Nordeste 10 Nordeste 0 -- -- 71
2019-05-02 01:00:00 11.4 3 Norte 6 Noroeste 0 -- -- 74
2019-05-02 00:00:00 11.9 2 Nordeste 6 Este 0 -- -- 73
2019-05-01 23:00:00 12.3 0 Calma 5 Norte 0 -- -- 73
2019-05-01 22:00:00 13.6 0 Calma 4 Nordeste 0 -- -- 74
2019-05-01 21:00:00 15.4 2 Este 11 Este 0 -- -- 70
2019-05-01 20:00:00 17.3 5 Sudeste 18 Sudeste 0 -- -- 62
2019-05-01 19:00:00 20.7 9 Sudeste 21 Sudeste 0 -- -- 49
2019-05-01 18:00:00 21.9 12 Sur 21 Sudeste 0 -- -- 43
2019-05-01 17:00:00 20.4 14 Sudoeste 24 Sudoeste 0 -- -- 56
2019-05-01 16:00:00 19.7 15 Sudoeste 26 Sudoeste 0 -- -- 57
2019-05-01 15:00:00 19.9 15 Sudoeste 24 Oeste 0 -- -- 55
2019-05-01 14:00:00 19.7 15 Sudoeste 23 Sudoeste 0 -- -- 54
2019-05-01 13:00:00 20.3 10 Sudoeste 17 Sudoeste 0 -- -- 54
2019-05-01 12:00:00 19.3 11 Sudoeste 18 Sudoeste 0 -- -- 50
2019-05-01 11:00:00 19.2 7 Sudoeste 13 Sudoeste 0 -- -- 52
2019-05-01 10:00:00 19.2 4 Sudoeste 8 Oeste 0 -- -- 53
2019-05-01 09:00:00 19 0 Calma 7 Este 0 -- -- 61
2019-05-01 08:00:00 10.5 0 Calma 9 Este 0 -- -- 80
2019-05-01 07:00:00 6.5 4 Este 8 Este 0 -- -- 85
2019-05-01 06:00:00 5.9 3 Este 10 Este 0 -- -- 85
2019-05-01 05:00:00 6.3 3 Nordeste 9 Este 0 -- -- 84
2019-05-01 04:00:00 6.8 0 Calma 7 Este 0 -- -- 86
2019-05-01 03:00:00 7.6 3 Este 6 Este 0 -- -- 87
2019-05-01 02:00:00 7.9 0 Calma 6 Este 0 -- -- 91
2019-05-01 01:00:00 8.7 3 Nordeste 6 Este 0 -- -- 89
2019-05-01 00:00:00 9.8 3 Este 4 Este 0 -- -- 88
2019-04-30 23:00:00 10.7 3 Este 5 Este 0 -- -- 86
2019-04-30 22:00:00 11.5 0 Calma 4 Norte 0 -- -- 82
2019-04-30 21:00:00 14 0 Calma 11 Sudoeste 0 -- -- 74
2019-04-30 20:00:00 16.9 5 Sudoeste 15 Sudoeste 0 -- -- 68
2019-04-30 19:00:00 17.5 9 Sudoeste 17 Sur 0 -- -- 68
2019-04-30 18:00:00 18.9 10 Sudoeste 23 Sur 0 -- -- 65
2019-04-30 17:00:00 18.7 13 Sudoeste 24 Sudoeste 0 -- -- 67
2019-04-30 16:00:00 19 13 Sudoeste 29 Oeste 0 -- -- 66
2019-04-30 15:00:00 19.2 13 Sudoeste 26 Sudoeste 0 -- -- 67
2019-04-30 14:00:00 18 16 Sudoeste 25 Sudoeste 0 -- -- 69
2019-04-30 13:00:00 18.1 15 Sudoeste 24 Sudoeste 0 -- -- 71
2019-04-30 12:00:00 17.6 15 Sudoeste 26 Sudoeste 0 -- -- 72
2019-04-30 11:00:00 18.9 4 Sur 13 Sur 0 -- -- 69
2019-04-30 10:00:00 19 4 Sudoeste 10 Sudoeste 0 -- -- 67
2019-04-30 09:00:00 17.1 4 Este 7 Este 0 -- -- 81
2019-04-30 08:00:00 11.8 0 Calma 7 Este 0 -- -- 93
2019-04-30 07:00:00 9.3 3 Este 5 Este 0 -- -- 93
2019-04-30 06:00:00 10.8 3 Este 7 Sudeste 0 -- -- 93
2019-04-30 05:00:00 10 2 Nordeste 6 Sudeste 0 -- -- 93
2019-04-30 04:00:00 8.7 2 Este 7 Este 0 -- -- 92
2019-04-30 03:00:00 9.2 3 Este 7 Este 0 -- -- 91
2019-04-30 02:00:00 9.7 3 Este 6 Este 0 -- -- 89
2019-04-30 01:00:00 10.2 3 Este 5 Este 0 -- -- 87
2019-04-30 00:00:00 10.5 0 Calma 5 Este 0 -- -- 84
2019-04-29 23:00:00 11.7 0 Calma 5 Norte 0 -- -- 81
2019-04-29 22:00:00 12.2 2 Nordeste 5 Norte 0 -- -- 78
2019-04-29 21:00:00 14.6 2 Sur 9 Sudoeste 0 -- -- 71
2019-04-29 20:00:00 16.7 5 Sudoeste 15 Oeste 0 -- -- 64
2019-04-29 19:00:00 17.6 10 Sudoeste 19 Sudoeste 0 -- -- 61
2019-04-29 18:00:00 18.2 10 Sudoeste 20 Sudoeste 0 -- -- 59
2019-04-29 17:00:00 18.5 10 Sudoeste 24 Sudoeste 0 -- -- 59
2019-04-29 16:00:00 19.1 12 Sudoeste 22 Sudoeste 0 -- -- 59
2019-04-29 15:00:00 18.8 13 Sudoeste 25 Oeste 0 -- -- 60
2019-04-29 14:00:00 18.9 12 Sudoeste 23 Sur 0 -- -- 63
2019-04-29 13:00:00 17.7 18 Sudoeste 28 Sudoeste 0 -- -- 63
2019-04-29 12:00:00 18.3 14 Sudoeste 25 Sudoeste 0 -- -- 54
2019-04-29 11:00:00 19 11 Sur 21 Sur 0 -- -- 55
2019-04-29 10:00:00 18.3 5 Este 15 Nordeste 0 -- -- 73
2019-04-29 09:00:00 16.1 5 Este 10 Este 0 -- -- 91
2019-04-29 08:00:00 11.2 2 Nordeste 5 Norte 0 -- -- 96
2019-04-29 07:00:00 9.1 2 Nordeste 4 Este 0 -- -- 95
2019-04-29 06:00:00 10.5 0 Calma 5 Este 0 -- -- 95
2019-04-29 05:00:00 11.2 0 Calma 4 Nordeste 0 -- -- 94
2019-04-29 04:00:00 10.5 0 Calma 4 Este 0 -- -- 94
2019-04-29 03:00:00 10 0 Calma 3 Este 0 -- -- 93
2019-04-29 02:00:00 10.8 0 Calma 4 Nordeste 0 -- -- 91
2019-04-29 01:00:00 12.7 3 Nordeste 6 Este 0 -- -- 90
2019-04-29 00:00:00 12.8 0 Calma 5 Este 0 -- -- 89
2019-04-28 23:00:00 13.2 0 Calma 4 Noroeste 0 -- -- 87
2019-04-28 22:00:00 14.5 0 Calma 4 Este 0 -- -- 84
2019-04-28 21:00:00 14.8 0 Calma 17 Sudeste 0 -- -- 82
2019-04-28 20:00:00 16.1 7 Sudeste 14 Este 0 -- -- 77
2019-04-28 19:00:00 17.9 10 Sudeste 18 Sudeste 0 -- -- 70
2019-04-28 18:00:00 17.8 10 Sur 22 Sur 0 -- -- 70
2019-04-28 17:00:00 19.3 10 Sur 22 Sudoeste 0 -- -- 67
2019-04-28 16:00:00 18.1 13 Sudoeste 24 Sur 0 -- -- 71
2019-04-28 15:00:00 18.5 16 Sudoeste 27 Sudoeste 0 -- -- 69
2019-04-28 14:00:00 20 14 Sudoeste 28 Sudoeste 0 -- -- 59
2019-04-28 13:00:00 19.7 13 Sudoeste 23 Sudoeste 0 -- -- 61
2019-04-28 12:00:00 19 11 Sudoeste 19 Sudoeste 0 -- -- 67
2019-04-28 11:00:00 18.5 9 Sudoeste 17 Sudoeste 0 -- -- 70
2019-04-28 10:00:00 17.8 8 Sudoeste 13 Sur 0 -- -- 66
2019-04-28 09:00:00 17.9 3 Este 9 Este 0 -- -- 61
2019-04-28 08:00:00 10.9 3 Este 9 Este 0 -- -- 82
2019-04-28 07:00:00 7.1 3 Nordeste 11 Este 0 -- -- 86
2019-04-28 06:00:00 7.6 0 Calma 6 Este 0 -- -- 87
2019-04-28 05:00:00 8.6 6 Este 8 Este 0 -- -- 87
2019-04-28 04:00:00 8.7 0 Calma 7 Este 0 -- -- 85
2019-04-28 03:00:00 9.1 3 Nordeste 6 Este 0 -- -- 84
2019-04-28 02:00:00 9.7 2 Nordeste 9 Este 0 -- -- 81
2019-04-28 01:00:00 10.1 3 Este 6 Este 0 -- -- 79
2019-04-28 00:00:00 10.8 3 Nordeste 7 Este 0 -- -- 76
2019-04-27 23:00:00 12.4 2 Nordeste 8 Nordeste 0 -- -- 72
2019-04-27 22:00:00 12.8 3 Nordeste 7 Norte 0 -- -- 71
2019-04-27 21:00:00 15.1 4 Sur 16 Sudoeste 0 -- -- 65
2019-04-27 20:00:00 19.3 5 Sudoeste 15 Sudoeste 0 -- -- 40
2019-04-27 19:00:00 20.5 11 Sudoeste 24 Sudoeste 0 -- -- 35
2019-04-27 18:00:00 20.9 17 Sudoeste 28 Sudoeste 0 -- -- 33
2019-04-27 17:00:00 22.5 16 Oeste 28 Oeste 0 -- -- 30
2019-04-27 16:00:00 22.7 16 Sudoeste 30 Sudoeste 0 -- -- 29
2019-04-27 15:00:00 23.3 15 Oeste 31 Sudoeste 0 -- -- 30
2019-04-27 14:00:00 23.2 15 Noroeste 28 Sudoeste 0 -- -- 32
2019-04-27 13:00:00 22.7 10 Oeste 23 Oeste 0 -- -- 35
2019-04-27 12:00:00 20.7 12 Sur 24 Sur 0 -- -- 57
2019-04-27 11:00:00 19 13 Sur 21 Sur 0 -- -- 63
2019-04-27 10:00:00 18.4 10 Sur 18 Sur 0 -- -- 62
2019-04-27 09:00:00 17.8 3 Sudeste 9 Este 0 -- -- 57
2019-04-27 08:00:00 10.3 3 Este 9 Este 0 -- -- 80
2019-04-27 07:00:00 6.3 2 Este 8 Este 0 -- -- 82
2019-04-27 06:00:00 6.2 0 Calma 9 Este 0 -- -- 81
2019-04-27 05:00:00 6.8 4 Este 8 Este 0 -- -- 79
2019-04-27 04:00:00 7.7 3 Nordeste 10 Este 0 -- -- 78
2019-04-27 03:00:00 7.2 3 Este 8 Este 0 -- -- 78
2019-04-27 02:00:00 7.8 3 Este 9 Este 0 -- -- 75
2019-04-27 01:00:00 8.4 3 Nordeste 10 Este 0 -- -- 72
2019-04-27 00:00:00 9.3 4 Norte 6 Este 0 -- -- 71
2019-04-26 23:00:00 10.3 2 Nordeste 8 Norte 0 -- -- 67
2019-04-26 22:00:00 11.5 2 Norte 6 Norte 0 -- -- 63
2019-04-26 21:00:00 14 2 Noroeste 10 Noroeste 0 -- -- 54
2019-04-26 20:00:00 19.6 5 Noroeste 21 Noroeste 0 -- -- 38
2019-04-26 19:00:00 21 12 Noroeste 20 Noroeste 0 -- -- 35
2019-04-26 18:00:00 22.2 9 Noroeste 25 Norte 0 -- -- 34
2019-04-26 17:00:00 21.9 15 Noroeste 31 Noroeste 0 -- -- 35
2019-04-26 16:00:00 21 15 Noroeste 33 Norte 0 -- -- 39
2019-04-26 15:00:00 20.8 17 Noroeste 36 Noroeste 0 -- -- 39
2019-04-26 14:00:00 20.9 17 Norte 33 Noroeste 0 -- -- 39
2019-04-26 13:00:00 21 10 Norte 28 Norte 0 -- -- 41
2019-04-26 12:00:00 19.7 12 Noroeste 29 Norte 0 -- -- 46
2019-04-26 11:00:00 19 8 Norte 23 Noroeste 0 -- -- 55
2019-04-26 10:00:00 18.8 10 Norte 22 Norte 0 -- -- 59
2019-04-26 09:00:00 17.7 10 Norte 20 Norte 0 -- -- 66
2019-04-26 08:00:00 14.6 5 Noroeste 13 Noroeste 0 -- -- 77
2019-04-26 07:00:00 14.3 10 Noroeste 24 Noroeste 0 -- -- 73
2019-04-26 06:00:00 14.6 16 Noroeste 30 Noroeste 0 -- -- 69
2019-04-26 05:00:00 14 9 Noroeste 27 Noroeste 0 -- -- 71
2019-04-26 04:00:00 15 12 Noroeste 35 Noroeste 0 -- -- 69
2019-04-26 03:00:00 15.9 11 Oeste 31 Sudoeste 0 -- -- 71
2019-04-26 02:00:00 16.8 19 Oeste 38 Oeste 0 -- -- 69
2019-04-26 01:00:00 16.2 11 Oeste 24 Oeste 0 -- -- 89
2019-04-26 00:00:00 12.6 2 Nordeste 6 Noroeste 0 -- -- 93